Lone Mountain, TN

02:10 AM EDT die 31o October, anno 2014 (GMT -0400)
Middlesboro | Change Station
CLOSE
Current Station
Airport
Location: Middlesboro,
Elevation: 1155 ft
Nearby Weather Stations

Elev 1155 ft 36.61 °N, 83.74 °W | Updated 15 minutes ago

Serena
Serena
36 °F
Feels Like 36 °F
N
0
Ventus Variabilis Ventus from Aquilo

Hodie
High -- | Low -- °F
--% Chance of Precip.
Yesterday
High -- | Low -- °F
Precip. -- in
7:56 AM 6:38 PM
First Quarter, 52% visible
Pressio 30.03 in
Visibilitas 10.0 milia passuum
Clouds Serena
Frigus in quo Ros apparet 36 °F
Umor 99%
Rainfall 0.00 in
Snow Depth Not available.
UV 0 out of 12
Pollen .40 out of 12
Air Quality Not available.
Flu Activity Not available.
METAR K1A6 310555Z AUTO 00000KT 10SM CLR 02/02 A3003 RMK AO2 T00240023 10085 20024 401560017

More Conditions Fewer Conditions

Pressio 30.03 in
Visibilitas 10.0 milia passuum
Clouds Serena
Frigus in quo Ros apparet 36 °F
Umor 99%
Rainfall 0.00 in
Snow Depth Not available.
UV 0 out of 12
Pollen .40 out of 12
Air Quality Not available.
Flu Activity Not available.
METAR K1A6 310555Z AUTO 00000KT 10SM CLR 02/02 A3003 RMK AO2 T00240023 10085 20024 401560017

More Conditions Fewer Conditions

10-Day Weather Forecast

Almanac

Astronomy

Oct. 31, 2014 Rise Set
Actual Time
Civil Twilight
Nautical Twilight
Astronomical Twilight
Moon
Length Of Visible Light
Length of Day
Tomorrow will be .
, % of the Moon is Illuminated

Today's Extremes

State Highs State Lows

Community

WunderPhotos

Upload Photos

1,766,571 photos uploaded!

WunderBlogs® & News

Nearby

Air Quality

  Air Quality AQ Index Pollutant
Not available.

Snow Depth

Station Depth Elevation

Earthquake Activity

City Distance Mag. Time & Date
Minimum magnitude displayed is 2.5.

Coastal Water Temperatures

Locus Calor

Nearby Weather Stations